• Join FlightAware (Why Join?)
  • Login
  • US Flag 
01:59AM EDT


 

Airport Tracker/Info


-or-


 

Live Flight TrackerFlight Track Log ✈ EJA941 ✈ 03-May-2013 ✈ KSMO - KLAS

Flight Track Log - Related Links

Times and Time Zones

All times are in EDT time to prevent confusion due to time zone crossing. See the EJA941 flight status page for this flight to view local times or setup timezone preferences in your user account.

Time Position Orientation Groundspeed Altitude Reporting Facility
EDT Latitude Longitude Course Direction KTS MPH feet Rate Location/Type
02:19PM 34.0000 -118.5892 270° West 261 300 6,000  Level Los Angeles Center
02:20PM 34.0644 -118.6286 333° Northwest 287 330 7,000 720 Climbing Los Angeles Center
02:21PM 34.1208 -118.5747 38° Northeast 282 325 7,500 1,860 Climbing Los Angeles Center
02:22PM 34.1172 -118.4589 92° East 288 331 10,900 2,220 Climbing Los Angeles Center
02:23PM 34.1844 -118.3936 39° Northeast 348 400 12,200 960 Climbing Los Angeles Center
02:24PM 34.2892 -118.4106 352° North 375 432 13,000 360 Climbing Los Angeles Center
02:25PM 34.3875 -118.4775 331° Northwest 426 490 13,000 300 Level Los Angeles Center
02:26PM 34.4822 -118.5461 329° Northwest 398 458 13,700 900 Climbing Los Angeles Center
02:27PM 34.5725 -118.4872 28° Northeast 380 437 14,900 1,620 Climbing Los Angeles Center
02:28PM 34.5986 -118.3300 79° East 396 456 17,100 1,860 Climbing Los Angeles Center
02:29PM 34.6153 -118.1961 81° East 401 461 18,800 1,620 Climbing Los Angeles Center
02:30PM 34.6314 -118.0611 82° East 414 476 20,500 1,500 Climbing Los Angeles Center
02:31PM 34.6464 -117.9183 83° East 428 493 22,000 1,320 Climbing Los Angeles Center
02:32PM 34.6636 -117.7694 82° East 445 512 23,300 1,320 Climbing Los Angeles Center
02:33PM 34.7078 -117.5886 73° East 470 541 24,800 780 Climbing Los Angeles Center
02:34PM 34.7469 -117.4311 73° East 490 564 25,000 60 Climbing Los Angeles Center
02:35PM 34.7892 -117.2653 73° East 516 594 25,000  Level Los Angeles Center
02:37PM 34.8319 -117.0983 73° East 521 600 25,000  Level Los Angeles Center
02:38PM 34.8814 -116.8994 73° East 518 596 25,000  Level Los Angeles Center
02:39PM 34.9461 -116.7461 63° Northeast 515 593 25,100  Climbing Los Angeles Center
02:40PM 34.9997 -116.6256 61° Northeast 511 588 25,000 -300 Descending Los Angeles Center
02:41PM 35.0811 -116.4456 61° Northeast 508 585 24,500 -780 Descending Los Angeles Center
02:42PM 35.1703 -116.3139 50° Northeast 506 582 23,500 -1,500 Descending Los Angeles Center
02:43PM 35.2644 -116.1989 45° Northeast 488 562 21,500 -1,920 Descending Los Angeles Center
02:44PM 35.3717 -116.0622 46° Northeast 470 541 19,200 -1,980 Descending Los Angeles Center
02:45PM 35.4775 -115.9311 45° Northeast 458 527 17,100 -2,040 Descending Los Angeles Center
02:45PM 35.5067 -115.8928 47° Northeast 418 481 16,400 -1,440 Descending Los Angeles Center
02:46PM 35.5497 -115.8375 46° Northeast 398 458 15,600 -1,380 Descending Los Angeles Center
02:46PM 35.5744 -115.8053 47° Northeast 351 404 15,000 -1,200 Descending Los Angeles Center
02:47PM 35.6136 -115.7567 45° Northeast 341 392 14,400 -1,140 Descending Los Angeles Center
02:47PM 35.6389 -115.7239 46° Northeast 339 390 13,900 -1,260 Descending Los Angeles Center
02:48PM 35.6856 -115.6633 46° Northeast 381 438 13,100 -900 Descending Los Angeles Center
02:48PM 35.7156 -115.6278 44° Northeast 393 452 13,000 -120 Descending Los Angeles Center
02:49PM 35.7903 -115.5731 31° Northeast 403 464 13,000  Level Los Angeles Center
02:49PM 35.8150 -115.5692 North 406 467 13,000  Level Los Angeles Center
02:50PM 35.9036 -115.5639 North 405 466 13,000  Level Los Angeles Center
02:50PM 35.9400 -115.5475 20° North 393 452 13,000 -300 Level Los Angeles Center
02:51PM 35.9839 -115.4944 44° Northeast 364 419 12,700 -840 Descending Los Angeles Center
02:52PM 36.0003 -115.4561 62° Northeast 325 374 12,200 -1,260 Descending Los Angeles Center
02:52PM 36.0211 -115.4006 65° Northeast 329 379 11,400 -1,200 Descending Los Angeles Center
02:53PM 36.0286 -115.3672 74° East 274 315 11,000 -1,200 Descending Los Angeles Center
02:53PM 36.0272 -115.3175 92° East 277 319 10,200 -1,080 Descending Los Angeles Center
02:54PM 36.0169 -115.2036 96° East 245 282 9,000 -840 Descending Los Angeles Center
02:55PM 36.0133 -115.1350 94° East 244 281 8,500 -540 Descending Los Angeles Center
02:56PM 36.0100 -115.0686 94° East 211 243 8,000 -300 Descending Los Angeles Center
02:57PM 36.0400 -115.0189 53° Northeast 205 236 8,000 -600 Level Los Angeles Center
02:58PM 36.0906 -115.0000 17° North 196 226 6,800 -1,260 Descending Los Angeles Center
02:59PM 36.1331 -115.0314 329° Northwest 187 215 5,400 -1,440 Descending Los Angeles Center
03:01PM 36.1436 -115.0917 282° West 162 186 3,800 -1,260 Descending Los Angeles Center
03:02PM 36.1319 -115.1358 252° West 147 169 2,800 -780 Descending Los Angeles Center
03:03PM 36.0944 -115.1581 206° Southwest 143 165 2,300 -540 Descending Los Angeles Center
03:05PM 36.0801 -115.1523 97° East  Level Estimated